createdAt,value
2023-03-22T00:00:41.279Z,21.01
2023-03-22T00:02:42.764Z,20.92
2023-03-22T00:04:44.288Z,20.93
2023-03-22T00:06:45.688Z,20.95
2023-03-22T00:08:47.022Z,20.94
2023-03-22T00:10:48.314Z,20.94
2023-03-22T00:12:49.623Z,20.95
2023-03-22T00:14:52.241Z,20.96
2023-03-22T00:16:53.539Z,20.96
2023-03-22T00:18:54.871Z,20.94
2023-03-22T00:20:56.192Z,20.98
2023-03-22T00:22:57.540Z,20.98
2023-03-22T00:24:58.855Z,20.94
2023-03-22T00:27:00.915Z,20.93
2023-03-22T00:29:02.323Z,20.92
2023-03-22T00:31:03.797Z,20.87
2023-03-22T00:33:05.291Z,20.85
2023-03-22T00:35:06.597Z,20.83
2023-03-22T00:37:08.158Z,20.80
2023-03-22T00:39:09.524Z,20.79
2023-03-22T00:41:11.073Z,20.77
2023-03-22T00:43:12.440Z,20.78
2023-03-22T00:45:13.784Z,20.79
2023-03-22T00:47:15.365Z,20.77
2023-03-22T00:49:16.720Z,20.77
2023-03-22T00:51:18.224Z,20.76
2023-03-22T00:53:19.566Z,20.77
2023-03-22T00:55:20.899Z,20.76
2023-03-22T00:57:22.199Z,20.75
2023-03-22T00:59:24.052Z,20.72
2023-03-22T01:01:25.518Z,20.69
2023-03-22T01:03:26.963Z,20.69
2023-03-22T01:05:28.419Z,20.69
2023-03-22T01:07:29.752Z,20.70
2023-03-22T01:09:33.599Z,20.71
2023-03-22T01:11:34.889Z,20.72
2023-03-22T01:13:39.439Z,20.72
2023-03-22T01:15:41.482Z,20.75
2023-03-22T01:17:43.315Z,20.78
2023-03-22T01:19:44.654Z,20.80
2023-03-22T01:21:45.983Z,20.81
2023-03-22T01:23:47.451Z,20.81
2023-03-22T01:25:49.027Z,20.83
2023-03-22T01:27:50.353Z,20.87
2023-03-22T01:29:51.653Z,20.94
2023-03-22T01:31:52.964Z,20.93
2023-03-22T01:33:54.327Z,20.92
2023-03-22T01:35:55.642Z,20.91
2023-03-22T01:37:56.944Z,20.92
2023-03-22T01:39:58.251Z,20.93
2023-03-22T01:41:59.581Z,20.93
2023-03-22T01:44:03.037Z,20.93
2023-03-22T01:46:04.426Z,20.92
2023-03-22T01:48:05.827Z,20.91
2023-03-22T01:50:07.181Z,20.89
2023-03-22T01:52:08.529Z,20.88
2023-03-22T01:54:09.872Z,20.89
2023-03-22T01:56:11.280Z,20.85
2023-03-22T01:58:12.570Z,20.82
2023-03-22T02:00:15.829Z,20.81
2023-03-22T02:02:20.243Z,20.79
2023-03-22T02:04:23.434Z,20.78
2023-03-22T02:06:24.757Z,20.77
2023-03-22T02:08:26.056Z,20.74
2023-03-22T02:10:27.414Z,20.77
2023-03-22T02:12:28.713Z,20.79
2023-03-22T02:14:30.123Z,20.81
2023-03-22T02:16:31.498Z,20.79
2023-03-22T02:18:32.786Z,20.78
2023-03-22T02:20:34.115Z,20.76
2023-03-22T02:22:39.062Z,20.75
2023-03-22T02:24:43.895Z,20.73
2023-03-22T02:26:47.103Z,20.72
2023-03-22T02:28:48.550Z,20.75
2023-03-22T02:30:49.929Z,20.78
2023-03-22T02:32:51.279Z,20.77
2023-03-22T02:34:53.991Z,20.78
2023-03-22T02:36:55.301Z,20.79
2023-03-22T02:38:57.743Z,20.78
2023-03-22T02:40:59.105Z,20.78
2023-03-22T02:43:00.560Z,20.79
2023-03-22T02:45:01.848Z,20.80
2023-03-22T02:47:03.162Z,20.80
2023-03-22T02:49:04.474Z,20.80
2023-03-22T02:51:05.800Z,20.81
2023-03-22T02:53:07.159Z,20.83
2023-03-22T02:55:08.838Z,20.84
2023-03-22T02:57:10.308Z,20.85
2023-03-22T02:59:11.665Z,20.87
2023-03-22T03:01:13.009Z,20.90
2023-03-22T03:03:14.971Z,20.92
2023-03-22T03:05:16.302Z,20.93
2023-03-22T03:07:17.635Z,20.94
2023-03-22T03:09:19.307Z,20.92
2023-03-22T03:11:21.256Z,20.86
2023-03-22T03:13:22.582Z,20.86
2023-03-22T03:15:23.888Z,20.85
2023-03-22T03:17:25.707Z,20.83
2023-03-22T03:19:27.026Z,20.84
2023-03-22T03:21:30.086Z,20.87
2023-03-22T03:23:31.426Z,20.85
2023-03-22T03:25:32.753Z,20.83
2023-03-22T03:27:34.048Z,20.82
2023-03-22T03:29:35.523Z,20.82
2023-03-22T03:31:36.855Z,20.79
2023-03-22T03:33:38.304Z,20.75
2023-03-22T03:35:39.685Z,20.73
2023-03-22T03:37:41.438Z,20.74
2023-03-22T03:39:42.821Z,20.69
2023-03-22T03:41:44.144Z,20.82
2023-03-22T03:43:45.439Z,20.84
2023-03-22T03:45:46.795Z,20.54
2023-03-22T03:47:48.228Z,20.31
2023-03-22T03:49:49.564Z,20.15
2023-03-22T03:51:50.934Z,20.05
2023-03-22T03:53:52.268Z,20.13
2023-03-22T03:55:53.601Z,20.38
2023-03-22T03:57:54.950Z,20.42
2023-03-22T03:59:56.242Z,20.43
2023-03-22T04:01:57.680Z,20.45
2023-03-22T04:03:59.056Z,20.55
2023-03-22T04:06:00.796Z,20.55
2023-03-22T04:08:02.245Z,20.51
2023-03-22T04:10:03.627Z,20.52
2023-03-22T04:12:04.932Z,20.59
2023-03-22T04:14:06.484Z,20.62
2023-03-22T04:16:07.793Z,20.65
2023-03-22T04:18:09.783Z,20.68
2023-03-22T04:20:11.159Z,20.74
2023-03-22T04:22:14.839Z,20.76
2023-03-22T04:24:16.224Z,20.78
2023-03-22T04:26:17.515Z,20.81
2023-03-22T04:28:20.364Z,20.82
2023-03-22T04:30:22.849Z,20.82
2023-03-22T04:32:26.317Z,20.82
2023-03-22T04:34:27.635Z,20.82
2023-03-22T04:36:31.177Z,20.80
2023-03-22T04:38:32.935Z,20.78
2023-03-22T04:40:36.567Z,20.77
2023-03-22T04:42:38.075Z,20.74
2023-03-22T04:44:39.433Z,20.70
2023-03-22T04:46:40.877Z,20.70
2023-03-22T04:48:42.236Z,20.64
2023-03-22T04:50:43.596Z,20.62
2023-03-22T04:52:44.923Z,19.82
2023-03-22T04:54:46.232Z,20.55
2023-03-22T04:56:47.563Z,20.53
2023-03-22T04:58:48.961Z,20.48
2023-03-22T05:00:50.280Z,20.45
2023-03-22T05:02:51.637Z,20.42
2023-03-22T05:04:52.957Z,20.38
2023-03-22T05:06:54.280Z,20.33
2023-03-22T05:08:56.549Z,20.26
2023-03-22T05:10:57.849Z,20.21
2023-03-22T05:12:59.186Z,20.17
2023-03-22T05:15:03.632Z,20.13
2023-03-22T05:17:05.189Z,20.10
2023-03-22T05:19:06.705Z,20.07
2023-03-22T05:21:08.675Z,20.05
2023-03-22T05:23:10.160Z,20.03
2023-03-22T05:25:11.717Z,20.04
2023-03-22T05:27:14.213Z,20.08
2023-03-22T05:29:16.146Z,20.10
2023-03-22T05:31:17.492Z,20.15
2023-03-22T05:33:22.041Z,20.18
2023-03-22T05:35:23.451Z,20.22
2023-03-22T05:37:25.441Z,20.26
2023-03-22T05:39:26.728Z,20.33
2023-03-22T05:41:28.058Z,20.42
2023-03-22T05:43:29.420Z,20.49
2023-03-22T05:45:32.505Z,20.55
2023-03-22T05:47:34.000Z,20.62
2023-03-22T05:49:35.349Z,20.67
2023-03-22T05:51:41.719Z,20.70
2023-03-22T05:53:43.392Z,20.74
2023-03-22T05:55:44.906Z,20.75
2023-03-22T05:57:51.469Z,20.76
2023-03-22T05:59:54.050Z,20.79
2023-03-22T06:01:55.472Z,20.78
2023-03-22T06:03:56.772Z,20.81
2023-03-22T06:05:58.063Z,20.78
2023-03-22T06:07:59.364Z,20.78
2023-03-22T06:10:00.779Z,20.75
2023-03-22T06:12:02.168Z,20.74
2023-03-22T06:14:03.465Z,20.72
2023-03-22T06:16:04.856Z,20.69
2023-03-22T06:18:06.282Z,20.67
2023-03-22T06:20:10.177Z,20.63
2023-03-22T06:22:11.508Z,20.61
2023-03-22T06:24:12.831Z,20.57
2023-03-22T06:26:14.123Z,20.54
2023-03-22T06:28:15.535Z,20.51
2023-03-22T06:30:16.867Z,20.46
2023-03-22T06:32:18.183Z,20.44
2023-03-22T06:34:19.528Z,20.41
2023-03-22T06:36:21.169Z,20.36
2023-03-22T06:38:22.464Z,20.34
2023-03-22T06:40:23.872Z,20.30
2023-03-22T06:42:26.102Z,20.28
2023-03-22T06:44:27.417Z,20.24
2023-03-22T06:46:28.796Z,20.22
2023-03-22T06:48:30.248Z,20.20
2023-03-22T06:50:31.643Z,20.17
2023-03-22T06:52:33.004Z,20.16
2023-03-22T06:54:34.369Z,20.16
2023-03-22T06:56:35.693Z,20.15
2023-03-22T06:58:37.112Z,20.16
2023-03-22T07:00:38.977Z,20.17
2023-03-22T07:02:40.641Z,20.17
2023-03-22T07:04:42.086Z,20.18
2023-03-22T07:06:43.408Z,20.22
2023-03-22T07:08:44.721Z,20.25
2023-03-22T07:10:46.023Z,20.29
2023-03-22T07:12:47.361Z,20.33
2023-03-22T07:14:48.706Z,20.39
2023-03-22T07:16:50.166Z,20.45
2023-03-22T07:18:51.536Z,20.49
2023-03-22T07:20:52.848Z,20.53
2023-03-22T07:22:54.193Z,20.57
2023-03-22T07:24:58.833Z,20.62
2023-03-22T07:27:02.223Z,20.64
2023-03-22T07:29:03.574Z,20.65
2023-03-22T07:31:04.967Z,20.68
2023-03-22T07:33:06.606Z,20.68
2023-03-22T07:35:07.946Z,20.69
2023-03-22T07:37:09.566Z,20.69
2023-03-22T07:39:11.240Z,20.71
2023-03-22T07:41:12.551Z,20.70
2023-03-22T07:43:13.864Z,20.70
2023-03-22T07:45:15.425Z,20.69
2023-03-22T07:47:20.294Z,20.68
2023-03-22T07:49:26.791Z,20.67
2023-03-22T07:51:28.377Z,20.64
2023-03-22T07:53:29.710Z,20.62
2023-03-22T07:55:31.031Z,20.61
2023-03-22T07:57:32.556Z,20.58
2023-03-22T07:59:33.852Z,20.56
2023-03-22T08:01:35.330Z,20.57
2023-03-22T08:03:36.676Z,20.56
2023-03-22T08:05:38.474Z,20.58
2023-03-22T08:07:39.976Z,20.63
2023-03-22T08:09:41.308Z,20.67
2023-03-22T08:11:42.647Z,20.69
2023-03-22T08:13:43.950Z,20.68
2023-03-22T08:15:45.392Z,20.67
2023-03-22T08:17:49.807Z,20.67
2023-03-22T08:19:51.231Z,20.67
2023-03-22T08:21:52.579Z,20.66
2023-03-22T08:23:54.007Z,20.64
2023-03-22T08:25:55.806Z,20.66
2023-03-22T08:27:57.253Z,20.66
2023-03-22T08:29:58.726Z,20.67
2023-03-22T08:32:02.480Z,20.67
2023-03-22T08:34:03.897Z,20.69
2023-03-22T08:36:05.485Z,20.73
2023-03-22T08:38:06.878Z,20.74
2023-03-22T08:40:09.615Z,20.74
2023-03-22T08:42:11.007Z,20.75
2023-03-22T08:44:12.346Z,20.75
2023-03-22T08:46:13.719Z,20.74
2023-03-22T08:48:15.087Z,20.74
2023-03-22T08:50:16.446Z,20.79
2023-03-22T08:52:17.766Z,20.79
2023-03-22T08:54:19.075Z,20.84
2023-03-22T08:56:22.651Z,20.86
2023-03-22T08:58:23.964Z,20.88
2023-03-22T09:00:25.658Z,20.92
2023-03-22T09:02:27.038Z,20.94
2023-03-22T09:04:28.448Z,20.96
2023-03-22T09:06:29.804Z,20.98
2023-03-22T09:08:31.252Z,20.99
2023-03-22T09:10:32.609Z,20.98
2023-03-22T09:12:33.947Z,20.99
2023-03-22T09:14:35.317Z,20.99
2023-03-22T09:16:36.721Z,20.96
2023-03-22T09:18:38.104Z,20.94
2023-03-22T09:20:39.827Z,20.94
2023-03-22T09:22:41.322Z,20.91
2023-03-22T09:24:42.629Z,20.89
2023-03-22T09:26:43.973Z,20.87
2023-03-22T09:28:46.818Z,20.87
2023-03-22T09:30:48.235Z,20.85
2023-03-22T09:32:49.548Z,20.85
2023-03-22T09:34:50.828Z,20.83
2023-03-22T09:36:52.840Z,20.83
2023-03-22T09:38:54.163Z,20.84
2023-03-22T09:41:02.181Z,20.83
2023-03-22T09:43:03.494Z,20.78
2023-03-22T09:45:04.827Z,20.71
2023-03-22T09:47:06.127Z,20.67
2023-03-22T09:49:07.550Z,20.63
2023-03-22T09:51:08.843Z,20.60
2023-03-22T09:53:10.212Z,20.58
2023-03-22T09:55:11.539Z,20.60
2023-03-22T09:57:12.841Z,20.64
2023-03-22T09:59:14.181Z,20.66
2023-03-22T10:01:15.725Z,20.68
2023-03-22T10:03:17.319Z,20.71
2023-03-22T10:05:18.648Z,20.74
2023-03-22T10:07:19.989Z,20.72
2023-03-22T10:09:21.336Z,20.69
2023-03-22T10:11:22.635Z,20.71
2023-03-22T10:13:23.952Z,20.73
2023-03-22T10:15:25.296Z,20.76
2023-03-22T10:17:26.588Z,20.80
2023-03-22T10:19:27.903Z,20.78
2023-03-22T10:21:29.191Z,20.77
2023-03-22T10:23:30.663Z,20.78
2023-03-22T10:25:32.764Z,20.79
2023-03-22T10:27:34.304Z,20.78
2023-03-22T10:29:35.649Z,20.73
2023-03-22T10:31:37.002Z,20.76
2023-03-22T10:33:38.807Z,20.73
2023-03-22T10:35:40.482Z,20.77
2023-03-22T10:37:41.933Z,20.79
2023-03-22T10:39:43.248Z,20.75
2023-03-22T10:41:44.601Z,20.79
2023-03-22T10:43:46.113Z,20.83
2023-03-22T10:45:47.461Z,20.86
2023-03-22T10:47:48.856Z,20.86
2023-03-22T10:49:53.206Z,20.86
2023-03-22T10:51:54.747Z,20.89
2023-03-22T10:53:56.249Z,20.88
2023-03-22T10:55:57.684Z,20.89
2023-03-22T10:57:58.980Z,20.86
2023-03-22T11:00:00.329Z,20.83
2023-03-22T11:02:02.277Z,20.83
2023-03-22T11:04:03.660Z,20.83
2023-03-22T11:06:04.995Z,20.78
2023-03-22T11:08:06.748Z,20.72
2023-03-22T11:10:08.068Z,20.67
2023-03-22T11:12:09.458Z,20.63
2023-03-22T11:14:10.767Z,20.61
2023-03-22T11:16:12.119Z,20.59
2023-03-22T11:18:14.225Z,20.56
2023-03-22T11:20:15.838Z,20.56
2023-03-22T11:22:17.151Z,20.57
2023-03-22T11:24:18.489Z,20.60
2023-03-22T11:26:19.778Z,20.65
2023-03-22T11:28:21.127Z,20.67
2023-03-22T11:30:22.479Z,20.70
2023-03-22T11:32:23.843Z,20.68
2023-03-22T11:34:26.341Z,20.69
2023-03-22T11:36:27.891Z,20.69
2023-03-22T11:38:32.684Z,20.68
2023-03-22T11:40:33.993Z,20.67
2023-03-22T11:42:35.815Z,20.66
2023-03-22T11:44:38.507Z,20.65
2023-03-22T11:46:39.986Z,20.64
2023-03-22T11:48:41.467Z,20.58
2023-03-22T11:50:43.179Z,20.58
2023-03-22T11:52:44.720Z,20.57
2023-03-22T11:54:46.074Z,20.53
2023-03-22T11:56:47.397Z,20.50
2023-03-22T11:58:49.124Z,20.50
2023-03-22T12:00:52.489Z,20.52
2023-03-22T12:02:53.907Z,20.54
2023-03-22T12:04:57.354Z,20.55
2023-03-22T12:06:58.866Z,20.61
2023-03-22T12:09:00.231Z,20.68
2023-03-22T12:11:01.527Z,20.73
2023-03-22T12:13:03.231Z,20.75
2023-03-22T12:15:04.603Z,20.75
2023-03-22T12:17:06.016Z,20.73
2023-03-22T12:19:07.368Z,20.70
2023-03-22T12:21:08.708Z,20.68
2023-03-22T12:23:10.004Z,20.66
2023-03-22T12:25:11.308Z,20.62
2023-03-22T12:27:12.601Z,20.64
2023-03-22T12:29:15.015Z,20.64
2023-03-22T12:31:16.543Z,20.64
2023-03-22T12:33:18.080Z,20.62
2023-03-22T12:35:19.446Z,20.61
2023-03-22T12:37:20.755Z,20.61
2023-03-22T12:39:22.075Z,20.63
2023-03-22T12:41:23.365Z,20.64
2023-03-22T12:43:24.664Z,20.64
2023-03-22T12:45:26.141Z,19.89
2023-03-22T12:47:27.516Z,20.65
2023-03-22T12:49:28.880Z,20.68
2023-03-22T12:51:30.326Z,20.65
2023-03-22T12:53:31.653Z,20.64
2023-03-22T12:55:32.948Z,20.58
2023-03-22T12:57:34.310Z,20.56
2023-03-22T12:59:35.977Z,20.52
2023-03-22T13:01:37.351Z,20.51
2023-03-22T13:03:38.856Z,20.51
2023-03-22T13:05:40.482Z,20.49
2023-03-22T13:07:41.926Z,20.48
2023-03-22T13:09:43.379Z,20.50
2023-03-22T13:11:44.727Z,20.51
2023-03-22T13:13:46.081Z,20.52
2023-03-22T13:15:47.373Z,20.54
2023-03-22T13:17:49.444Z,20.57
2023-03-22T13:19:50.950Z,20.57
2023-03-22T13:21:54.446Z,20.57
2023-03-22T13:23:56.531Z,20.62
2023-03-22T13:25:57.844Z,20.65
2023-03-22T13:27:59.193Z,20.69
2023-03-22T13:30:00.572Z,20.71
2023-03-22T13:32:02.015Z,20.73
2023-03-22T13:34:04.845Z,20.77
2023-03-22T13:36:07.369Z,20.80
2023-03-22T13:38:08.816Z,20.79
2023-03-22T13:40:10.145Z,20.81
2023-03-22T13:42:11.576Z,20.80
2023-03-22T13:44:12.877Z,20.80
2023-03-22T13:46:14.246Z,21.42
2023-03-22T13:48:15.666Z,21.41
2023-03-22T13:50:17.101Z,21.67
2023-03-22T13:52:18.428Z,21.53
2023-03-22T13:54:19.843Z,21.95
2023-03-22T13:56:21.433Z,21.75
2023-03-22T13:58:22.824Z,22.06
2023-03-22T14:00:24.415Z,22.09
2023-03-22T14:02:25.974Z,21.55
2023-03-22T14:04:27.429Z,21.26
2023-03-22T14:06:28.926Z,21.15
2023-03-22T14:08:30.294Z,21.08
2023-03-22T14:10:31.608Z,21.02
2023-03-22T14:12:32.891Z,21.04
2023-03-22T14:14:34.225Z,21.02
2023-03-22T14:16:35.694Z,21.08
2023-03-22T14:18:36.987Z,21.13
2023-03-22T14:20:38.313Z,21.15
